sensor_id;sensor_type;location;lat;lon;timestamp;P1;durP1;ratioP1;P2;durP2;ratioP2
21527;SDS011;10925;49.102;-0.370;2023-03-01T00:00:06;37.33;;;22.35;;
21527;SDS011;10925;49.102;-0.370;2023-03-01T00:02:36;35.80;;;21.63;;
21527;SDS011;10925;49.102;-0.370;2023-03-01T00:05:03;52.35;;;25.77;;
21527;SDS011;10925;49.102;-0.370;2023-03-01T00:07:30;51.13;;;24.98;;
21527;SDS011;10925;49.102;-0.370;2023-03-01T00:09:58;61.15;;;28.98;;
21527;SDS011;10925;49.102;-0.370;2023-03-01T00:12:25;45.35;;;25.02;;
21527;SDS011;10925;49.102;-0.370;2023-03-01T00:14:51;42.63;;;26.02;;
21527;SDS011;10925;49.102;-0.370;2023-03-01T00:17:18;112.55;;;45.10;;
21527;SDS011;10925;49.102;-0.370;2023-03-01T00:19:45;176.18;;;65.88;;
21527;SDS011;10925;49.102;-0.370;2023-03-01T00:22:12;66.45;;;34.88;;
21527;SDS011;10925;49.102;-0.370;2023-03-01T00:24:38;119.85;;;50.75;;
21527;SDS011;10925;49.102;-0.370;2023-03-01T00:27:05;117.05;;;52.22;;
21527;SDS011;10925;49.102;-0.370;2023-03-01T00:29:32;101.85;;;45.30;;
21527;SDS011;10925;49.102;-0.370;2023-03-01T00:31:57;123.93;;;53.95;;
21527;SDS011;10925;49.102;-0.370;2023-03-01T00:34:23;102.53;;;49.38;;
21527;SDS011;10925;49.102;-0.370;2023-03-01T00:36:50;90.32;;;44.60;;
21527;SDS011;10925;49.102;-0.370;2023-03-01T00:39:17;59.55;;;32.38;;
21527;SDS011;10925;49.102;-0.370;2023-03-01T00:41:44;85.03;;;41.15;;
21527;SDS011;10925;49.102;-0.370;2023-03-01T00:44:11;95.70;;;44.30;;
21527;SDS011;10925;49.102;-0.370;2023-03-01T00:46:37;53.10;;;30.02;;
21527;SDS011;10925;49.102;-0.370;2023-03-01T00:49:03;70.10;;;36.08;;
21527;SDS011;10925;49.102;-0.370;2023-03-01T00:51:29;69.55;;;35.70;;
21527;SDS011;10925;49.102;-0.370;2023-03-01T00:53:58;70.57;;;38.33;;
21527;SDS011;10925;49.102;-0.370;2023-03-01T00:56:25;51.53;;;31.95;;
21527;SDS011;10925;49.102;-0.370;2023-03-01T00:58:52;76.70;;;40.22;;
21527;SDS011;10925;49.102;-0.370;2023-03-01T01:01:21;96.13;;;51.17;;
21527;SDS011;10925;49.102;-0.370;2023-03-01T01:03:47;75.95;;;42.65;;
21527;SDS011;10925;49.102;-0.370;2023-03-01T01:06:15;61.35;;;36.90;;
21527;SDS011;10925;49.102;-0.370;2023-03-01T01:08:43;62.40;;;35.63;;
21527;SDS011;10925;49.102;-0.370;2023-03-01T01:11:09;61.00;;;35.58;;
21527;SDS011;10925;49.102;-0.370;2023-03-01T01:13:36;61.90;;;38.50;;
21527;SDS011;10925;49.102;-0.370;2023-03-01T01:16:04;43.13;;;28.45;;
21527;SDS011;10925;49.102;-0.370;2023-03-01T01:18:29;44.75;;;28.65;;
21527;SDS011;10925;49.102;-0.370;2023-03-01T01:20:55;38.60;;;25.50;;
21527;SDS011;10925;49.102;-0.370;2023-03-01T01:23:20;34.80;;;23.30;;
21527;SDS011;10925;49.102;-0.370;2023-03-01T01:25:46;38.25;;;22.33;;
21527;SDS011;10925;49.102;-0.370;2023-03-01T01:28:11;33.78;;;21.40;;
21527;SDS011;10925;49.102;-0.370;2023-03-01T01:30:38;33.05;;;21.38;;
21527;SDS011;10925;49.102;-0.370;2023-03-01T01:33:05;30.05;;;20.23;;
21527;SDS011;10925;49.102;-0.370;2023-03-01T01:35:32;30.80;;;19.67;;
21527;SDS011;10925;49.102;-0.370;2023-03-01T01:37:58;33.45;;;21.05;;
21527;SDS011;10925;49.102;-0.370;2023-03-01T01:40:25;32.72;;;20.48;;
21527;SDS011;10925;49.102;-0.370;2023-03-01T01:42:52;29.48;;;19.00;;
21527;SDS011;10925;49.102;-0.370;2023-03-01T01:45:28;29.05;;;19.30;;
21527;SDS011;10925;49.102;-0.370;2023-03-01T01:47:57;32.47;;;21.58;;
21527;SDS011;10925;49.102;-0.370;2023-03-01T01:50:26;33.00;;;20.80;;
21527;SDS011;10925;49.102;-0.370;2023-03-01T01:52:53;28.73;;;19.45;;
21527;SDS011;10925;49.102;-0.370;2023-03-01T01:55:24;32.42;;;19.98;;
21527;SDS011;10925;49.102;-0.370;2023-03-01T01:57:56;35.33;;;20.98;;
21527;SDS011;10925;49.102;-0.370;2023-03-01T02:00:24;32.55;;;20.65;;
21527;SDS011;10925;49.102;-0.370;2023-03-01T02:02:52;31.38;;;20.02;;
21527;SDS011;10925;49.102;-0.370;2023-03-01T02:05:22;30.85;;;20.08;;
21527;SDS011;10925;49.102;-0.370;2023-03-01T02:07:50;29.42;;;20.23;;
21527;SDS011;10925;49.102;-0.370;2023-03-01T02:10:19;35.40;;;21.38;;
21527;SDS011;10925;49.102;-0.370;2023-03-01T02:12:46;34.25;;;21.60;;
21527;SDS011;10925;49.102;-0.370;2023-03-01T02:15:13;33.72;;;21.85;;
21527;SDS011;10925;49.102;-0.370;2023-03-01T02:17:40;36.22;;;21.77;;
21527;SDS011;10925;49.102;-0.370;2023-03-01T02:20:26;36.15;;;22.52;;
21527;SDS011;10925;49.102;-0.370;2023-03-01T02:23:07;31.65;;;20.77;;
21527;SDS011;10925;49.102;-0.370;2023-03-01T02:25:44;33.25;;;21.48;;
21527;SDS011;10925;49.102;-0.370;2023-03-01T02:30:41;33.72;;;21.65;;
21527;SDS011;10925;49.102;-0.370;2023-03-01T02:35:54;33.00;;;19.63;;
21527;SDS011;10925;49.102;-0.370;2023-03-01T02:38:21;32.38;;;20.02;;
21527;SDS011;10925;49.102;-0.370;2023-03-01T03:02:49;35.67;;;21.15;;
21527;SDS011;10925;49.102;-0.370;2023-03-01T03:05:19;37.80;;;22.13;;
21527;SDS011;10925;49.102;-0.370;2023-03-01T03:07:47;34.53;;;21.48;;
21527;SDS011;10925;49.102;-0.370;2023-03-01T03:10:16;34.13;;;21.27;;
21527;SDS011;10925;49.102;-0.370;2023-03-01T03:12:47;33.90;;;21.08;;
21527;SDS011;10925;49.102;-0.370;2023-03-01T03:15:13;36.55;;;21.15;;
21527;SDS011;10925;49.102;-0.370;2023-03-01T03:17:39;40.17;;;23.15;;
21527;SDS011;10925;49.102;-0.370;2023-03-01T03:20:06;38.53;;;21.40;;
21527;SDS011;10925;49.102;-0.370;2023-03-01T03:25:34;38.30;;;21.83;;
21527;SDS011;10925;49.102;-0.370;2023-03-01T03:28:03;36.85;;;22.17;;
21527;SDS011;10925;49.102;-0.370;2023-03-01T03:30:35;40.08;;;23.02;;
21527;SDS011;10925;49.102;-0.370;2023-03-01T03:33:02;41.35;;;23.25;;
21527;SDS011;10925;49.102;-0.370;2023-03-01T03:35:29;36.42;;;21.88;;
21527;SDS011;10925;49.102;-0.370;2023-03-01T03:37:57;40.22;;;22.88;;
21527;SDS011;10925;49.102;-0.370;2023-03-01T03:40:40;39.53;;;22.33;;
21527;SDS011;10925;49.102;-0.370;2023-03-01T03:43:09;42.67;;;22.63;;
21527;SDS011;10925;49.102;-0.370;2023-03-01T03:45:35;40.03;;;23.13;;
21527;SDS011;10925;49.102;-0.370;2023-03-01T03:48:03;39.13;;;22.85;;
21527;SDS011;10925;49.102;-0.370;2023-03-01T03:50:31;42.97;;;23.55;;
21527;SDS011;10925;49.102;-0.370;2023-03-01T03:53:02;43.60;;;24.40;;
21527;SDS011;10925;49.102;-0.370;2023-03-01T03:55:28;39.63;;;23.92;;
21527;SDS011;10925;49.102;-0.370;2023-03-01T03:57:58;44.58;;;22.85;;
21527;SDS011;10925;49.102;-0.370;2023-03-01T04:00:28;40.35;;;23.45;;
21527;SDS011;10925;49.102;-0.370;2023-03-01T04:02:54;46.85;;;24.98;;
21527;SDS011;10925;49.102;-0.370;2023-03-01T04:05:23;44.58;;;25.20;;
21527;SDS011;10925;49.102;-0.370;2023-03-01T04:07:50;45.22;;;25.85;;
21527;SDS011;10925;49.102;-0.370;2023-03-01T04:10:26;53.70;;;29.25;;
21527;SDS011;10925;49.102;-0.370;2023-03-01T04:12:54;59.83;;;30.50;;
21527;SDS011;10925;49.102;-0.370;2023-03-01T04:15:23;58.22;;;30.45;;
21527;SDS011;10925;49.102;-0.370;2023-03-01T04:17:51;55.92;;;31.10;;
21527;SDS011;10925;49.102;-0.370;2023-03-01T04:20:19;56.63;;;31.02;;
21527;SDS011;10925;49.102;-0.370;2023-03-01T04:22:57;56.78;;;30.35;;
21527;SDS011;10925;49.102;-0.370;2023-03-01T04:25:24;56.22;;;29.33;;
21527;SDS011;10925;49.102;-0.370;2023-03-01T04:27:52;57.22;;;30.38;;
21527;SDS011;10925;49.102;-0.370;2023-03-01T04:30:17;54.42;;;29.95;;
21527;SDS011;10925;49.102;-0.370;2023-03-01T04:32:44;54.67;;;29.40;;
21527;SDS011;10925;49.102;-0.370;2023-03-01T04:35:11;57.33;;;30.50;;
21527;SDS011;10925;49.102;-0.370;2023-03-01T04:37:38;58.13;;;30.50;;
21527;SDS011;10925;49.102;-0.370;2023-03-01T04:40:05;58.50;;;31.75;;
21527;SDS011;10925;49.102;-0.370;2023-03-01T04:42:42;58.13;;;30.70;;
21527;SDS011;10925;49.102;-0.370;2023-03-01T04:45:09;53.25;;;29.77;;
21527;SDS011;10925;49.102;-0.370;2023-03-01T04:47:42;53.15;;;29.58;;
21527;SDS011;10925;49.102;-0.370;2023-03-01T04:50:11;51.80;;;29.30;;
21527;SDS011;10925;49.102;-0.370;2023-03-01T04:55:41;52.05;;;26.90;;
21527;SDS011;10925;49.102;-0.370;2023-03-01T04:58:08;54.20;;;28.65;;
21527;SDS011;10925;49.102;-0.370;2023-03-01T05:00:35;49.25;;;25.73;;
21527;SDS011;10925;49.102;-0.370;2023-03-01T05:03:02;50.88;;;28.42;;
21527;SDS011;10925;49.102;-0.370;2023-03-01T05:05:33;49.65;;;26.60;;
21527;SDS011;10925;49.102;-0.370;2023-03-01T05:08:01;52.83;;;25.75;;
21527;SDS011;10925;49.102;-0.370;2023-03-01T05:10:29;50.25;;;24.95;;
21527;SDS011;10925;49.102;-0.370;2023-03-01T05:12:57;50.13;;;24.23;;
21527;SDS011;10925;49.102;-0.370;2023-03-01T05:15:27;47.00;;;24.42;;
21527;SDS011;10925;49.102;-0.370;2023-03-01T05:17:56;46.28;;;23.80;;
21527;SDS011;10925;49.102;-0.370;2023-03-01T05:20:25;47.40;;;24.60;;
21527;SDS011;10925;49.102;-0.370;2023-03-01T05:22:54;46.53;;;24.55;;
21527;SDS011;10925;49.102;-0.370;2023-03-01T05:25:20;40.70;;;23.58;;
21527;SDS011;10925;49.102;-0.370;2023-03-01T05:27:48;45.10;;;22.83;;
21527;SDS011;10925;49.102;-0.370;2023-03-01T05:30:15;37.53;;;20.77;;
21527;SDS011;10925;49.102;-0.370;2023-03-01T05:32:45;36.08;;;19.42;;
21527;SDS011;10925;49.102;-0.370;2023-03-01T05:35:13;34.92;;;19.20;;
21527;SDS011;10925;49.102;-0.370;2023-03-01T05:37:45;37.22;;;20.40;;
21527;SDS011;10925;49.102;-0.370;2023-03-01T05:40:11;34.30;;;19.15;;
21527;SDS011;10925;49.102;-0.370;2023-03-01T05:42:41;31.50;;;18.58;;
21527;SDS011;10925;49.102;-0.370;2023-03-01T05:45:08;32.03;;;19.15;;
21527;SDS011;10925;49.102;-0.370;2023-03-01T05:47:34;36.90;;;20.10;;
21527;SDS011;10925;49.102;-0.370;2023-03-01T05:50:00;33.88;;;19.35;;
21527;SDS011;10925;49.102;-0.370;2023-03-01T05:52:27;31.73;;;19.50;;
21527;SDS011;10925;49.102;-0.370;2023-03-01T05:54:54;32.95;;;18.67;;
21527;SDS011;10925;49.102;-0.370;2023-03-01T05:57:22;32.72;;;18.77;;
21527;SDS011;10925;49.102;-0.370;2023-03-01T05:59:49;33.15;;;18.38;;
21527;SDS011;10925;49.102;-0.370;2023-03-01T06:02:16;32.63;;;18.23;;
21527;SDS011;10925;49.102;-0.370;2023-03-01T06:04:43;36.35;;;18.58;;
21527;SDS011;10925;49.102;-0.370;2023-03-01T06:07:13;32.13;;;18.90;;
21527;SDS011;10925;49.102;-0.370;2023-03-01T06:09:38;30.58;;;18.17;;
21527;SDS011;10925;49.102;-0.370;2023-03-01T06:12:06;33.22;;;18.02;;
21527;SDS011;10925;49.102;-0.370;2023-03-01T06:14:33;33.13;;;18.58;;
21527;SDS011;10925;49.102;-0.370;2023-03-01T06:17:00;31.83;;;18.27;;
21527;SDS011;10925;49.102;-0.370;2023-03-01T06:19:27;32.25;;;18.40;;
21527;SDS011;10925;49.102;-0.370;2023-03-01T06:21:54;31.45;;;18.42;;
21527;SDS011;10925;49.102;-0.370;2023-03-01T06:24:19;33.63;;;19.35;;
21527;SDS011;10925;49.102;-0.370;2023-03-01T06:26:46;32.67;;;19.27;;
21527;SDS011;10925;49.102;-0.370;2023-03-01T06:29:13;31.95;;;18.55;;
21527;SDS011;10925;49.102;-0.370;2023-03-01T06:31:41;38.95;;;20.52;;
21527;SDS011;10925;49.102;-0.370;2023-03-01T06:34:06;30.73;;;18.35;;
21527;SDS011;10925;49.102;-0.370;2023-03-01T06:36:32;39.38;;;19.35;;
21527;SDS011;10925;49.102;-0.370;2023-03-01T06:38:59;37.33;;;19.85;;
21527;SDS011;10925;49.102;-0.370;2023-03-01T06:41:24;38.72;;;19.35;;
21527;SDS011;10925;49.102;-0.370;2023-03-01T06:43:50;34.33;;;20.25;;
21527;SDS011;10925;49.102;-0.370;2023-03-01T06:46:17;33.15;;;19.42;;
21527;SDS011;10925;49.102;-0.370;2023-03-01T06:48:45;42.00;;;21.38;;
21527;SDS011;10925;49.102;-0.370;2023-03-01T06:51:12;43.03;;;21.17;;
21527;SDS011;10925;49.102;-0.370;2023-03-01T06:53:39;40.45;;;21.10;;
21527;SDS011;10925;49.102;-0.370;2023-03-01T06:56:06;41.47;;;21.85;;
21527;SDS011;10925;49.102;-0.370;2023-03-01T06:58:33;42.78;;;23.20;;
21527;SDS011;10925;49.102;-0.370;2023-03-01T07:01:04;47.78;;;24.33;;
21527;SDS011;10925;49.102;-0.370;2023-03-01T07:03:32;40.55;;;21.77;;
21527;SDS011;10925;49.102;-0.370;2023-03-01T07:05:59;43.83;;;20.80;;
21527;SDS011;10925;49.102;-0.370;2023-03-01T07:08:26;47.83;;;22.40;;
21527;SDS011;10925;49.102;-0.370;2023-03-01T07:10:58;43.30;;;22.38;;
21527;SDS011;10925;49.102;-0.370;2023-03-01T07:13:24;37.53;;;19.00;;
21527;SDS011;10925;49.102;-0.370;2023-03-01T07:15:49;39.17;;;18.40;;
21527;SDS011;10925;49.102;-0.370;2023-03-01T07:18:15;37.35;;;19.38;;
21527;SDS011;10925;49.102;-0.370;2023-03-01T07:20:40;38.38;;;19.50;;
21527;SDS011;10925;49.102;-0.370;2023-03-01T07:23:06;33.10;;;19.10;;
21527;SDS011;10925;49.102;-0.370;2023-03-01T07:25:33;36.78;;;19.85;;
21527;SDS011;10925;49.102;-0.370;2023-03-01T07:28:00;35.45;;;18.90;;
21527;SDS011;10925;49.102;-0.370;2023-03-01T07:30:28;33.92;;;19.48;;
21527;SDS011;10925;49.102;-0.370;2023-03-01T07:32:55;36.47;;;19.95;;
21527;SDS011;10925;49.102;-0.370;2023-03-01T07:35:24;52.63;;;27.50;;
21527;SDS011;10925;49.102;-0.370;2023-03-01T07:37:51;54.13;;;27.35;;
21527;SDS011;10925;49.102;-0.370;2023-03-01T07:40:18;49.38;;;24.90;;
21527;SDS011;10925;49.102;-0.370;2023-03-01T07:42:45;272.30;;;81.63;;
21527;SDS011;10925;49.102;-0.370;2023-03-01T07:45:12;104.35;;;41.30;;
21527;SDS011;10925;49.102;-0.370;2023-03-01T07:47:40;79.88;;;37.53;;
21527;SDS011;10925;49.102;-0.370;2023-03-01T07:50:07;45.63;;;23.67;;
21527;SDS011;10925;49.102;-0.370;2023-03-01T07:52:49;47.60;;;24.67;;
21527;SDS011;10925;49.102;-0.370;2023-03-01T07:55:15;38.95;;;21.98;;
21527;SDS011;10925;49.102;-0.370;2023-03-01T07:57:42;34.22;;;20.45;;
21527;SDS011;10925;49.102;-0.370;2023-03-01T08:00:10;39.35;;;21.13;;
21527;SDS011;10925;49.102;-0.370;2023-03-01T08:02:37;37.88;;;20.45;;
21527;SDS011;10925;49.102;-0.370;2023-03-01T08:05:05;35.78;;;20.05;;
21527;SDS011;10925;49.102;-0.370;2023-03-01T08:10:33;30.05;;;16.17;;
21527;SDS011;10925;49.102;-0.370;2023-03-01T08:13:00;31.50;;;17.45;;
21527;SDS011;10925;49.102;-0.370;2023-03-01T08:15:27;30.23;;;17.65;;
21527;SDS011;10925;49.102;-0.370;2023-03-01T08:17:54;34.95;;;19.88;;
21527;SDS011;10925;49.102;-0.370;2023-03-01T08:20:20;29.80;;;18.73;;
21527;SDS011;10925;49.102;-0.370;2023-03-01T08:22:46;25.95;;;15.27;;
21527;SDS011;10925;49.102;-0.370;2023-03-01T08:25:13;31.98;;;18.20;;
21527;SDS011;10925;49.102;-0.370;2023-03-01T08:27:38;29.27;;;16.70;;
21527;SDS011;10925;49.102;-0.370;2023-03-01T08:30:04;26.05;;;15.30;;
21527;SDS011;10925;49.102;-0.370;2023-03-01T08:32:35;27.90;;;17.02;;
21527;SDS011;10925;49.102;-0.370;2023-03-01T08:35:00;27.20;;;16.45;;
21527;SDS011;10925;49.102;-0.370;2023-03-01T08:37:27;19.35;;;10.55;;
21527;SDS011;10925;49.102;-0.370;2023-03-01T08:39:57;26.83;;;15.27;;
21527;SDS011;10925;49.102;-0.370;2023-03-01T08:42:24;28.83;;;17.20;;
21527;SDS011;10925;49.102;-0.370;2023-03-01T08:44:51;26.30;;;15.48;;
21527;SDS011;10925;49.102;-0.370;2023-03-01T08:47:18;27.25;;;16.67;;
21527;SDS011;10925;49.102;-0.370;2023-03-01T08:49:44;29.13;;;17.20;;
21527;SDS011;10925;49.102;-0.370;2023-03-01T08:52:11;25.08;;;14.18;;
21527;SDS011;10925;49.102;-0.370;2023-03-01T08:54:38;28.60;;;16.60;;
21527;SDS011;10925;49.102;-0.370;2023-03-01T08:57:05;26.10;;;16.73;;
21527;SDS011;10925;49.102;-0.370;2023-03-01T08:59:32;26.08;;;16.13;;
21527;SDS011;10925;49.102;-0.370;2023-03-01T09:02:04;26.35;;;16.38;;
21527;SDS011;10925;49.102;-0.370;2023-03-01T09:04:30;24.73;;;15.00;;
21527;SDS011;10925;49.102;-0.370;2023-03-01T09:06:55;29.95;;;13.63;;
21527;SDS011;10925;49.102;-0.370;2023-03-01T09:09:21;23.60;;;14.88;;
21527;SDS011;10925;49.102;-0.370;2023-03-01T09:11:48;24.17;;;15.52;;
21527;SDS011;10925;49.102;-0.370;2023-03-01T09:14:16;20.73;;;12.48;;
21527;SDS011;10925;49.102;-0.370;2023-03-01T09:16:43;25.75;;;14.88;;
21527;SDS011;10925;49.102;-0.370;2023-03-01T09:19:10;21.25;;;11.57;;
21527;SDS011;10925;49.102;-0.370;2023-03-01T09:21:38;21.63;;;12.18;;
21527;SDS011;10925;49.102;-0.370;2023-03-01T09:24:08;16.70;;;9.60;;
21527;SDS011;10925;49.102;-0.370;2023-03-01T09:26:37;20.85;;;13.43;;
21527;SDS011;10925;49.102;-0.370;2023-03-01T09:29:04;15.52;;;10.48;;
21527;SDS011;10925;49.102;-0.370;2023-03-01T09:31:31;17.50;;;9.40;;
21527;SDS011;10925;49.102;-0.370;2023-03-01T09:33:58;19.48;;;11.50;;
21527;SDS011;10925;49.102;-0.370;2023-03-01T09:36:25;19.48;;;11.60;;
21527;SDS011;10925;49.102;-0.370;2023-03-01T09:38:52;16.60;;;9.35;;
21527;SDS011;10925;49.102;-0.370;2023-03-01T09:43:50;12.95;;;7.70;;
21527;SDS011;10925;49.102;-0.370;2023-03-01T09:46:19;13.20;;;8.13;;
21527;SDS011;10925;49.102;-0.370;2023-03-01T09:48:51;11.25;;;7.00;;
21527;SDS011;10925;49.102;-0.370;2023-03-01T09:51:23;9.98;;;6.18;;
21527;SDS011;10925;49.102;-0.370;2023-03-01T09:53:52;10.45;;;7.38;;
21527;SDS011;10925;49.102;-0.370;2023-03-01T09:56:22;9.05;;;6.50;;
21527;SDS011;10925;49.102;-0.370;2023-03-01T10:01:29;11.98;;;7.63;;
21527;SDS011;10925;49.102;-0.370;2023-03-01T10:04:02;13.25;;;7.68;;
21527;SDS011;10925;49.102;-0.370;2023-03-01T10:06:29;16.15;;;7.22;;
21527;SDS011;10925;49.102;-0.370;2023-03-01T10:09:16;15.60;;;7.10;;
21527;SDS011;10925;49.102;-0.370;2023-03-01T10:11:44;11.43;;;6.03;;
21527;SDS011;10925;49.102;-0.370;2023-03-01T10:16:50;10.52;;;6.90;;
21527;SDS011;10925;49.102;-0.370;2023-03-01T10:19:21;21.23;;;12.30;;
21527;SDS011;10925;49.102;-0.370;2023-03-01T10:21:48;18.10;;;11.50;;
21527;SDS011;10925;49.102;-0.370;2023-03-01T10:24:17;12.80;;;8.60;;
21527;SDS011;10925;49.102;-0.370;2023-03-01T10:26:51;18.33;;;11.55;;
21527;SDS011;10925;49.102;-0.370;2023-03-01T10:29:19;11.77;;;7.93;;
21527;SDS011;10925;49.102;-0.370;2023-03-01T10:31:49;15.00;;;7.90;;
21527;SDS011;10925;49.102;-0.370;2023-03-01T10:34:16;10.93;;;7.20;;
21527;SDS011;10925;49.102;-0.370;2023-03-01T10:36:43;9.73;;;6.55;;
21527;SDS011;10925;49.102;-0.370;2023-03-01T10:39:11;8.38;;;5.28;;
21527;SDS011;10925;49.102;-0.370;2023-03-01T10:41:49;10.13;;;5.15;;
21527;SDS011;10925;49.102;-0.370;2023-03-01T10:44:35;8.90;;;5.82;;
21527;SDS011;10925;49.102;-0.370;2023-03-01T10:47:02;13.25;;;5.75;;
21527;SDS011;10925;49.102;-0.370;2023-03-01T10:49:29;10.43;;;6.70;;
21527;SDS011;10925;49.102;-0.370;2023-03-01T10:51:56;15.63;;;5.35;;
21527;SDS011;10925;49.102;-0.370;2023-03-01T10:54:36;9.57;;;5.18;;
21527;SDS011;10925;49.102;-0.370;2023-03-01T10:57:03;6.80;;;4.63;;
21527;SDS011;10925;49.102;-0.370;2023-03-01T10:59:29;13.85;;;8.73;;
21527;SDS011;10925;49.102;-0.370;2023-03-01T11:02:03;8.52;;;4.70;;
21527;SDS011;10925;49.102;-0.370;2023-03-01T11:07:56;7.90;;;5.32;;
21527;SDS011;10925;49.102;-0.370;2023-03-01T11:12:47;10.57;;;5.40;;
21527;SDS011;10925;49.102;-0.370;2023-03-01T11:15:26;7.75;;;5.22;;
21527;SDS011;10925;49.102;-0.370;2023-03-01T11:17:53;12.23;;;7.70;;
21527;SDS011;10925;49.102;-0.370;2023-03-01T11:20:38;9.13;;;5.72;;
21527;SDS011;10925;49.102;-0.370;2023-03-01T11:23:13;7.60;;;5.07;;
21527;SDS011;10925;49.102;-0.370;2023-03-01T11:25:40;8.07;;;5.32;;
21527;SDS011;10925;49.102;-0.370;2023-03-01T11:28:12;11.20;;;5.32;;
21527;SDS011;10925;49.102;-0.370;2023-03-01T11:30:47;9.30;;;5.25;;
21527;SDS011;10925;49.102;-0.370;2023-03-01T11:36:24;8.70;;;6.07;;
21527;SDS011;10925;49.102;-0.370;2023-03-01T11:38:52;8.32;;;5.32;;
21527;SDS011;10925;49.102;-0.370;2023-03-01T11:41:20;14.25;;;5.93;;
21527;SDS011;10925;49.102;-0.370;2023-03-01T11:54:37;12.82;;;7.78;;
21527;SDS011;10925;49.102;-0.370;2023-03-01T11:59:45;13.65;;;7.18;;
21527;SDS011;10925;49.102;-0.370;2023-03-01T12:10:48;14.05;;;7.60;;
21527;SDS011;10925;49.102;-0.370;2023-03-01T12:13:27;12.90;;;6.88;;
21527;SDS011;10925;49.102;-0.370;2023-03-01T12:18:50;12.65;;;7.68;;
21527;SDS011;10925;49.102;-0.370;2023-03-01T12:26:33;17.75;;;11.05;;
21527;SDS011;10925;49.102;-0.370;2023-03-01T12:31:49;16.95;;;10.00;;
21527;SDS011;10925;49.102;-0.370;2023-03-01T12:34:33;13.20;;;7.57;;
21527;SDS011;10925;49.102;-0.370;2023-03-01T12:39:46;11.68;;;7.05;;
21527;SDS011;10925;49.102;-0.370;2023-03-01T12:42:32;11.65;;;7.53;;
21527;SDS011;10925;49.102;-0.370;2023-03-01T12:50:21;22.93;;;13.13;;
21527;SDS011;10925;49.102;-0.370;2023-03-01T12:52:52;12.88;;;6.90;;
21527;SDS011;10925;49.102;-0.370;2023-03-01T12:57:56;11.52;;;6.65;;
21527;SDS011;10925;49.102;-0.370;2023-03-01T13:16:55;17.10;;;10.70;;
21527;SDS011;10925;49.102;-0.370;2023-03-01T13:19:23;9.98;;;6.32;;
21527;SDS011;10925;49.102;-0.370;2023-03-01T13:29:28;12.48;;;7.20;;
21527;SDS011;10925;49.102;-0.370;2023-03-01T13:32:17;15.55;;;8.02;;
21527;SDS011;10925;49.102;-0.370;2023-03-01T13:34:44;11.13;;;7.47;;
21527;SDS011;10925;49.102;-0.370;2023-03-01T13:37:18;12.18;;;7.53;;
21527;SDS011;10925;49.102;-0.370;2023-03-01T13:39:44;8.98;;;6.05;;
21527;SDS011;10925;49.102;-0.370;2023-03-01T13:48:42;13.73;;;5.95;;
21527;SDS011;10925;49.102;-0.370;2023-03-01T13:51:04;11.90;;;7.05;;
21527;SDS011;10925;49.102;-0.370;2023-03-01T13:53:33;12.32;;;7.22;;
21527;SDS011;10925;49.102;-0.370;2023-03-01T13:56:03;13.98;;;5.90;;
21527;SDS011;10925;49.102;-0.370;2023-03-01T13:58:43;8.45;;;5.25;;
21527;SDS011;10925;49.102;-0.370;2023-03-01T14:01:31;12.52;;;6.80;;
21527;SDS011;10925;49.102;-0.370;2023-03-01T14:03:59;10.68;;;7.65;;
21527;SDS011;10925;49.102;-0.370;2023-03-01T14:06:30;12.38;;;6.35;;
21527;SDS011;10925;49.102;-0.370;2023-03-01T14:09:02;10.90;;;6.72;;
21527;SDS011;10925;49.102;-0.370;2023-03-01T14:11:35;9.15;;;5.18;;
21527;SDS011;10925;49.102;-0.370;2023-03-01T14:14:10;9.93;;;6.05;;
21527;SDS011;10925;49.102;-0.370;2023-03-01T14:21:38;10.13;;;5.65;;
21527;SDS011;10925;49.102;-0.370;2023-03-01T14:24:05;9.27;;;4.88;;
21527;SDS011;10925;49.102;-0.370;2023-03-01T14:26:32;17.45;;;7.03;;
21527;SDS011;10925;49.102;-0.370;2023-03-01T14:29:01;7.35;;;5.05;;
21527;SDS011;10925;49.102;-0.370;2023-03-01T14:33:55;13.10;;;5.65;;
21527;SDS011;10925;49.102;-0.370;2023-03-01T14:36:29;7.68;;;3.83;;
21527;SDS011;10925;49.102;-0.370;2023-03-01T14:38:58;7.97;;;4.72;;
21527;SDS011;10925;49.102;-0.370;2023-03-01T14:41:34;8.27;;;5.32;;
21527;SDS011;10925;49.102;-0.370;2023-03-01T14:44:05;7.82;;;3.80;;
21527;SDS011;10925;49.102;-0.370;2023-03-01T14:46:34;7.05;;;4.72;;
21527;SDS011;10925;49.102;-0.370;2023-03-01T14:49:23;11.95;;;4.95;;
21527;SDS011;10925;49.102;-0.370;2023-03-01T14:51:57;7.30;;;4.25;;
21527;SDS011;10925;49.102;-0.370;2023-03-01T14:54:27;9.98;;;3.85;;
21527;SDS011;10925;49.102;-0.370;2023-03-01T14:56:59;8.88;;;3.78;;
21527;SDS011;10925;49.102;-0.370;2023-03-01T14:59:25;11.95;;;5.18;;
21527;SDS011;10925;49.102;-0.370;2023-03-01T15:01:51;9.93;;;4.70;;
21527;SDS011;10925;49.102;-0.370;2023-03-01T15:04:19;7.85;;;4.53;;
21527;SDS011;10925;49.102;-0.370;2023-03-01T15:06:50;6.38;;;3.95;;
21527;SDS011;10925;49.102;-0.370;2023-03-01T15:09:17;6.78;;;5.00;;
21527;SDS011;10925;49.102;-0.370;2023-03-01T15:11:45;5.38;;;4.00;;
21527;SDS011;10925;49.102;-0.370;2023-03-01T15:14:44;8.63;;;4.65;;
21527;SDS011;10925;49.102;-0.370;2023-03-01T15:17:04;5.38;;;3.13;;
21527;SDS011;10925;49.102;-0.370;2023-03-01T15:19:29;14.40;;;4.53;;
21527;SDS011;10925;49.102;-0.370;2023-03-01T15:21:55;19.80;;;5.00;;
21527;SDS011;10925;49.102;-0.370;2023-03-01T15:24:23;11.05;;;3.92;;
21527;SDS011;10925;49.102;-0.370;2023-03-01T15:29:54;9.75;;;5.07;;
21527;SDS011;10925;49.102;-0.370;2023-03-01T15:34:49;11.40;;;4.97;;
21527;SDS011;10925;49.102;-0.370;2023-03-01T15:40:01;9.93;;;4.40;;
21527;SDS011;10925;49.102;-0.370;2023-03-01T15:45:11;8.13;;;4.65;;
21527;SDS011;10925;49.102;-0.370;2023-03-01T15:47:39;9.45;;;5.68;;
21527;SDS011;10925;49.102;-0.370;2023-03-01T15:53:08;7.72;;;4.90;;
21527;SDS011;10925;49.102;-0.370;2023-03-01T15:55:37;12.10;;;6.65;;
21527;SDS011;10925;49.102;-0.370;2023-03-01T15:58:05;9.18;;;4.43;;
21527;SDS011;10925;49.102;-0.370;2023-03-01T16:00:32;11.93;;;4.60;;
21527;SDS011;10925;49.102;-0.370;2023-03-01T16:02:58;9.10;;;4.60;;
21527;SDS011;10925;49.102;-0.370;2023-03-01T16:05:41;12.20;;;4.97;;
21527;SDS011;10925;49.102;-0.370;2023-03-01T16:08:08;16.67;;;8.13;;
21527;SDS011;10925;49.102;-0.370;2023-03-01T16:10:35;8.35;;;4.20;;
21527;SDS011;10925;49.102;-0.370;2023-03-01T16:13:02;13.32;;;6.53;;
21527;SDS011;10925;49.102;-0.370;2023-03-01T16:15:32;9.73;;;4.32;;
21527;SDS011;10925;49.102;-0.370;2023-03-01T16:18:00;6.93;;;4.40;;
21527;SDS011;10925;49.102;-0.370;2023-03-01T16:20:27;7.43;;;3.92;;
21527;SDS011;10925;49.102;-0.370;2023-03-01T16:26:20;7.80;;;4.75;;
21527;SDS011;10925;49.102;-0.370;2023-03-01T16:28:47;10.93;;;4.43;;
21527;SDS011;10925;49.102;-0.370;2023-03-01T16:31:17;12.68;;;4.40;;
21527;SDS011;10925;49.102;-0.370;2023-03-01T16:33:44;11.68;;;6.88;;
21527;SDS011;10925;49.102;-0.370;2023-03-01T16:36:15;7.82;;;4.70;;
21527;SDS011;10925;49.102;-0.370;2023-03-01T16:38:41;11.77;;;6.28;;
21527;SDS011;10925;49.102;-0.370;2023-03-01T16:41:11;8.07;;;4.95;;
21527;SDS011;10925;49.102;-0.370;2023-03-01T16:43:38;5.57;;;3.70;;
21527;SDS011;10925;49.102;-0.370;2023-03-01T16:46:24;8.52;;;5.88;;
21527;SDS011;10925;49.102;-0.370;2023-03-01T16:48:49;8.48;;;5.60;;
21527;SDS011;10925;49.102;-0.370;2023-03-01T16:51:15;10.75;;;6.15;;
21527;SDS011;10925;49.102;-0.370;2023-03-01T16:53:43;10.48;;;6.93;;
21527;SDS011;10925;49.102;-0.370;2023-03-01T16:56:13;12.27;;;6.30;;